createdAt,value
2023-03-17T00:01:01.757Z,2.17
2023-03-17T00:03:38.542Z,2.16
2023-03-17T00:06:17.768Z,2.15
2023-03-17T00:08:51.616Z,2.13
2023-03-17T00:11:25.899Z,2.12
2023-03-17T00:13:59.452Z,2.11
2023-03-17T00:16:36.685Z,2.11
2023-03-17T00:19:12.583Z,2.10
2023-03-17T00:21:47.435Z,2.08
2023-03-17T00:24:21.649Z,2.04
2023-03-17T00:26:55.046Z,2.01
2023-03-17T00:29:28.906Z,1.99
2023-03-17T00:32:02.825Z,1.98
2023-03-17T00:34:36.558Z,1.96
2023-03-17T00:37:14.342Z,1.95
2023-03-17T00:39:48.038Z,1.94
2023-03-17T00:42:22.031Z,1.94
2023-03-17T00:44:55.918Z,1.95
2023-03-17T00:47:29.609Z,1.96
2023-03-17T00:50:03.504Z,1.95
2023-03-17T00:52:37.210Z,1.91
2023-03-17T00:55:12.466Z,1.90
2023-03-17T00:57:46.314Z,1.87
2023-03-17T01:00:26.784Z,1.83
2023-03-17T01:03:00.982Z,1.80
2023-03-17T01:05:34.539Z,1.78
2023-03-17T01:08:09.624Z,1.77
2023-03-17T01:10:43.877Z,1.77
2023-03-17T01:13:18.186Z,1.78
2023-03-17T01:15:53.139Z,1.79
2023-03-17T01:18:28.143Z,1.77
2023-03-17T01:21:02.051Z,1.73
2023-03-17T01:23:36.017Z,1.71
2023-03-17T01:26:10.222Z,1.68
2023-03-17T01:28:44.320Z,1.67
2023-03-17T01:31:17.645Z,1.63
2023-03-17T01:33:51.710Z,1.58
2023-03-17T01:36:25.644Z,1.56
2023-03-17T01:38:59.827Z,1.56
2023-03-17T01:41:36.924Z,1.57
2023-03-17T01:44:14.335Z,1.56
2023-03-17T01:46:49.842Z,1.55
2023-03-17T01:49:31.953Z,1.52
2023-03-17T01:52:10.294Z,1.49
2023-03-17T01:54:45.774Z,1.42
2023-03-17T01:57:25.346Z,1.36
2023-03-17T02:00:06.342Z,1.32
2023-03-17T02:02:50.436Z,1.31
2023-03-17T02:05:26.687Z,1.29
2023-03-17T02:08:01.379Z,1.32
2023-03-17T02:10:35.475Z,1.35
2023-03-17T02:13:10.352Z,1.38
2023-03-17T02:15:47.640Z,1.38
2023-03-17T02:18:24.019Z,1.35
2023-03-17T02:21:39.395Z,1.32
2023-03-17T02:24:22.739Z,1.26
2023-03-17T02:26:59.800Z,1.22
2023-03-17T02:29:38.020Z,1.18
2023-03-17T02:32:12.161Z,1.15
2023-03-17T02:34:45.817Z,1.14
2023-03-17T02:37:20.679Z,1.12
2023-03-17T02:39:54.209Z,1.13
2023-03-17T02:42:28.631Z,1.16
2023-03-17T02:45:06.660Z,1.18
2023-03-17T02:47:41.716Z,1.19
2023-03-17T02:50:22.521Z,1.19
2023-03-17T02:52:56.389Z,1.18
2023-03-17T02:55:29.925Z,1.15
2023-03-17T02:58:04.100Z,1.12
2023-03-17T03:00:39.115Z,1.11
2023-03-17T03:03:12.984Z,1.09
2023-03-17T03:05:47.449Z,1.05
2023-03-17T03:08:21.074Z,1.04
2023-03-17T03:10:55.350Z,1.06
2023-03-17T03:13:29.229Z,1.08
2023-03-17T03:16:03.121Z,1.08
2023-03-17T03:18:37.469Z,1.07
2023-03-17T03:21:12.494Z,1.06
2023-03-17T03:23:46.165Z,1.04
2023-03-17T03:26:20.289Z,1.03
2023-03-17T03:28:54.255Z,0.99
2023-03-17T03:31:28.382Z,0.95
2023-03-17T03:34:02.043Z,0.89
2023-03-17T03:36:35.570Z,0.84
2023-03-17T03:39:10.744Z,0.83
2023-03-17T03:41:45.807Z,0.83
2023-03-17T03:44:19.581Z,0.83
2023-03-17T03:46:53.388Z,0.84
2023-03-17T03:49:27.166Z,0.85
2023-03-17T03:52:00.640Z,0.87
2023-03-17T03:54:34.404Z,0.86
2023-03-17T03:57:08.262Z,0.83
2023-03-17T03:59:42.156Z,0.78
2023-03-17T04:02:17.484Z,0.75
2023-03-17T04:04:52.103Z,0.71
2023-03-17T04:07:25.967Z,0.69
2023-03-17T04:10:00.204Z,0.71
2023-03-17T04:12:33.896Z,0.72
2023-03-17T04:15:09.427Z,0.73
2023-03-17T04:17:42.899Z,0.73
2023-03-17T04:20:18.083Z,0.73
2023-03-17T04:22:51.710Z,0.72
2023-03-17T04:25:25.229Z,0.72
2023-03-17T04:27:58.613Z,0.71
2023-03-17T04:30:32.841Z,0.69
2023-03-17T04:33:07.554Z,0.64
2023-03-17T04:35:43.016Z,0.62
2023-03-17T04:38:16.851Z,0.61
2023-03-17T04:40:51.368Z,0.61
2023-03-17T04:43:24.849Z,0.62
2023-03-17T04:45:58.647Z,0.62
2023-03-17T04:48:32.417Z,0.64
2023-03-17T04:51:06.510Z,0.65
2023-03-17T04:53:40.343Z,0.66
2023-03-17T04:56:14.474Z,0.66
2023-03-17T04:58:48.311Z,0.66
2023-03-17T05:01:21.940Z,0.66
2023-03-17T05:03:55.565Z,0.67
2023-03-17T05:06:29.530Z,0.69
2023-03-17T05:09:04.012Z,0.71
2023-03-17T05:11:38.241Z,0.76
2023-03-17T05:14:11.656Z,0.81
2023-03-17T05:16:48.452Z,0.85
2023-03-17T05:19:22.378Z,0.89
2023-03-17T05:21:56.483Z,0.93
2023-03-17T05:24:30.122Z,0.97
2023-03-17T05:27:04.166Z,1.00
2023-03-17T05:29:38.424Z,1.05
2023-03-17T05:32:12.809Z,1.11
2023-03-17T05:34:46.674Z,1.21
2023-03-17T05:37:20.689Z,1.61
2023-03-17T05:39:54.492Z,2.32
2023-03-17T05:42:28.854Z,2.94
2023-03-17T05:45:02.643Z,3.56
2023-03-17T05:47:36.504Z,4.49
2023-03-17T05:50:12.027Z,5.57
2023-03-17T05:52:45.945Z,6.49
2023-03-17T05:55:19.827Z,6.94
2023-03-17T05:57:53.265Z,7.53
2023-03-17T06:00:29.677Z,8.01
2023-03-17T06:03:04.162Z,8.30
2023-03-17T06:05:37.957Z,8.49
2023-03-17T06:08:11.536Z,8.89
2023-03-17T06:10:44.735Z,9.49
2023-03-17T06:13:18.505Z,9.60
2023-03-17T06:15:54.197Z,9.83
2023-03-17T06:18:27.751Z,9.89
2023-03-17T06:21:02.206Z,9.83
2023-03-17T06:23:37.240Z,9.32
2023-03-17T06:26:11.277Z,8.65
2023-03-17T06:28:44.824Z,8.03
2023-03-17T06:31:18.571Z,7.60
2023-03-17T06:33:52.468Z,7.60
2023-03-17T06:36:26.283Z,8.27
2023-03-17T06:39:00.128Z,9.80
2023-03-17T06:41:33.863Z,11.60
2023-03-17T06:44:07.775Z,12.73
2023-03-17T06:46:41.812Z,12.57
2023-03-17T06:49:16.366Z,12.30
2023-03-17T06:51:50.253Z,12.32
2023-03-17T06:54:25.865Z,12.55
2023-03-17T06:56:59.948Z,13.94
2023-03-17T06:59:34.064Z,15.53
2023-03-17T07:02:07.781Z,16.99
2023-03-17T07:04:42.120Z,17.71
2023-03-17T07:07:16.593Z,17.47
2023-03-17T07:09:50.219Z,17.62
2023-03-17T07:12:24.275Z,18.62
2023-03-17T07:14:58.527Z,19.09
2023-03-17T07:17:33.211Z,19.27
2023-03-17T07:20:07.764Z,19.95
2023-03-17T07:22:41.513Z,20.53
2023-03-17T07:25:15.615Z,20.94
2023-03-17T07:27:49.758Z,21.61
2023-03-17T07:30:23.798Z,21.93
2023-03-17T07:32:58.902Z,21.69
2023-03-17T07:35:34.305Z,22.02
2023-03-17T07:38:08.470Z,22.18
2023-03-17T07:40:42.558Z,22.23
2023-03-17T07:43:17.168Z,22.23
2023-03-17T07:45:51.340Z,22.09
2023-03-17T07:48:24.809Z,21.50
2023-03-17T07:50:59.111Z,20.89
2023-03-17T07:53:32.408Z,21.43
2023-03-17T07:56:06.308Z,21.91
2023-03-17T07:58:40.535Z,21.55
2023-03-17T08:01:14.304Z,20.08
2023-03-17T08:03:48.412Z,19.14
2023-03-17T08:06:22.429Z,19.08
2023-03-17T08:08:56.874Z,19.42
2023-03-17T08:11:30.169Z,20.51
2023-03-17T08:14:03.926Z,21.72
2023-03-17T08:16:38.003Z,21.92
2023-03-17T08:19:12.125Z,21.72
2023-03-17T08:21:46.161Z,21.84
2023-03-17T08:24:21.140Z,22.29
2023-03-17T08:26:54.667Z,23.10
2023-03-17T08:29:30.560Z,23.09
2023-03-17T08:32:04.640Z,22.68
2023-03-17T08:34:38.856Z,21.96
2023-03-17T08:37:12.897Z,21.11
2023-03-17T08:39:47.175Z,19.82
2023-03-17T08:42:20.842Z,19.00
2023-03-17T08:44:54.266Z,18.36
2023-03-17T08:47:28.697Z,17.67
2023-03-17T08:50:02.697Z,17.10
2023-03-17T08:52:36.648Z,16.41
2023-03-17T08:55:13.012Z,15.80
2023-03-17T08:57:47.018Z,15.78
2023-03-17T09:00:22.580Z,16.10
2023-03-17T09:02:57.343Z,16.32
2023-03-17T09:05:32.200Z,16.90
2023-03-17T09:08:05.709Z,17.47
2023-03-17T09:10:39.735Z,17.75
2023-03-17T09:13:13.357Z,17.89
2023-03-17T09:15:48.391Z,17.95
2023-03-17T09:18:22.736Z,18.14
2023-03-17T09:20:56.748Z,18.82
2023-03-17T09:23:30.997Z,19.73
2023-03-17T09:26:05.159Z,20.79
2023-03-17T09:28:38.737Z,21.37
2023-03-17T09:31:13.281Z,21.34
2023-03-17T09:33:47.688Z,20.55
2023-03-17T09:36:22.055Z,19.11
2023-03-17T09:38:56.207Z,17.63
2023-03-17T09:41:57.389Z,16.16
2023-03-17T09:44:46.843Z,14.97
2023-03-17T09:47:38.480Z,14.14
2023-03-17T09:50:17.904Z,13.47
2023-03-17T09:52:53.475Z,13.12
2023-03-17T09:55:31.496Z,14.22
2023-03-17T09:58:05.705Z,15.87
2023-03-17T10:00:39.878Z,17.33
2023-03-17T10:03:15.368Z,18.76
2023-03-17T10:05:49.536Z,20.07
2023-03-17T10:08:31.571Z,20.99
2023-03-17T10:11:15.702Z,20.96
2023-03-17T10:13:59.030Z,20.27
2023-03-17T10:16:42.096Z,19.02
2023-03-17T10:19:23.833Z,17.82
2023-03-17T10:22:03.037Z,17.08
2023-03-17T10:24:41.609Z,16.26
2023-03-17T10:27:17.496Z,15.55
2023-03-17T10:29:51.328Z,15.02
2023-03-17T10:32:24.895Z,14.59
2023-03-17T10:34:58.968Z,14.13
2023-03-17T10:37:36.997Z,13.70
2023-03-17T10:40:22.567Z,13.61
2023-03-17T10:43:04.067Z,14.21
2023-03-17T10:45:44.075Z,14.74
2023-03-17T10:48:21.199Z,15.77
2023-03-17T10:50:58.738Z,16.81
2023-03-17T10:53:43.657Z,16.90
2023-03-17T10:56:25.085Z,16.54
2023-03-17T10:58:59.265Z,16.94
2023-03-17T11:01:41.746Z,17.53
2023-03-17T11:04:31.165Z,17.79
2023-03-17T11:07:11.845Z,17.83
2023-03-17T11:09:51.004Z,18.14
2023-03-17T11:12:28.890Z,18.75
2023-03-17T11:15:08.966Z,19.21
2023-03-17T11:17:50.477Z,19.13
2023-03-17T11:20:42.802Z,18.85
2023-03-17T11:23:35.312Z,19.17
2023-03-17T11:26:19.622Z,19.15
2023-03-17T11:29:01.283Z,19.11
2023-03-17T11:31:40.350Z,18.91
2023-03-17T11:34:22.333Z,19.09
2023-03-17T11:37:07.302Z,19.23
2023-03-17T11:39:50.938Z,19.12
2023-03-17T11:42:29.559Z,18.87
2023-03-17T11:45:15.978Z,18.67
2023-03-17T11:48:10.989Z,18.82
2023-03-17T11:51:01.645Z,18.53
2023-03-17T11:53:51.242Z,18.02
2023-03-17T11:56:33.800Z,17.72
2023-03-17T11:59:14.931Z,17.52
2023-03-17T12:01:57.155Z,17.59
2023-03-17T12:04:36.516Z,17.62
2023-03-17T12:07:18.732Z,17.68
2023-03-17T12:10:01.333Z,17.53
2023-03-17T12:12:41.606Z,17.33
2023-03-17T12:15:21.461Z,17.06
2023-03-17T12:17:59.576Z,16.72
2023-03-17T12:20:41.456Z,16.26
2023-03-17T12:23:29.738Z,15.45
2023-03-17T12:26:11.120Z,14.90
2023-03-17T12:28:50.236Z,14.70
2023-03-17T12:31:27.689Z,14.51
2023-03-17T12:34:09.735Z,14.30
2023-03-17T12:36:44.274Z,14.18
2023-03-17T12:39:20.822Z,14.21
2023-03-17T12:42:15.969Z,14.00
2023-03-17T12:45:07.569Z,13.85
2023-03-17T12:47:55.392Z,13.71
2023-03-17T12:51:06.817Z,13.56
2023-03-17T12:53:42.948Z,13.47
2023-03-17T12:56:23.022Z,13.36
2023-03-17T12:59:01.549Z,13.21
2023-03-17T13:01:35.462Z,13.08
2023-03-17T13:04:26.846Z,12.95
2023-03-17T13:07:12.905Z,12.92
2023-03-17T13:10:12.341Z,12.77
2023-03-17T13:13:14.886Z,12.57
2023-03-17T13:16:04.876Z,12.46
2023-03-17T13:19:07.782Z,12.36
2023-03-17T13:21:45.868Z,12.28
2023-03-17T13:24:42.228Z,12.25
2023-03-17T13:27:38.422Z,12.19
2023-03-17T13:30:42.564Z,12.17
2023-03-17T13:33:27.635Z,12.13
2023-03-17T13:36:19.437Z,12.11
2023-03-17T13:39:42.016Z,12.09
2023-03-17T13:42:27.830Z,11.99
2023-03-17T13:45:23.616Z,11.92
2023-03-17T13:48:27.882Z,11.91
2023-03-17T13:51:15.124Z,11.93
2023-03-17T13:53:54.250Z,12.00
2023-03-17T13:56:47.524Z,12.03
2023-03-17T13:59:21.982Z,12.01
2023-03-17T14:02:01.800Z,12.02
2023-03-17T14:04:48.204Z,12.06
2023-03-17T14:07:25.516Z,12.05
2023-03-17T14:10:05.493Z,12.02
2023-03-17T14:12:46.634Z,11.98
2023-03-17T14:15:28.360Z,11.92
2023-03-17T14:18:06.310Z,11.88
2023-03-17T14:20:40.306Z,11.85
2023-03-17T14:23:13.899Z,11.84
2023-03-17T14:25:47.978Z,11.85
2023-03-17T14:28:26.819Z,11.91
2023-03-17T14:31:00.696Z,11.90
2023-03-17T14:33:38.854Z,11.78
2023-03-17T14:36:15.479Z,11.67
2023-03-17T14:38:53.202Z,11.62
2023-03-17T14:41:28.412Z,11.51
2023-03-17T14:44:03.572Z,11.49
2023-03-17T14:46:40.739Z,11.49
2023-03-17T14:49:20.017Z,11.47
2023-03-17T14:51:56.683Z,11.40
2023-03-17T14:54:33.843Z,11.31
2023-03-17T14:57:10.497Z,11.27
2023-03-17T14:59:45.361Z,11.23
2023-03-17T15:02:30.125Z,11.17
2023-03-17T15:05:08.410Z,11.14
2023-03-17T15:07:43.985Z,11.12
2023-03-17T15:10:21.277Z,11.09
2023-03-17T15:13:04.455Z,11.10
2023-03-17T15:15:41.902Z,11.09
2023-03-17T15:18:17.188Z,11.05
2023-03-17T15:20:51.873Z,11.04
2023-03-17T15:23:30.452Z,10.99
2023-03-17T15:26:10.525Z,10.95
2023-03-17T15:28:44.804Z,10.86
2023-03-17T15:31:18.425Z,10.80
2023-03-17T15:33:52.725Z,10.80
2023-03-17T15:36:32.792Z,10.82
2023-03-17T15:39:07.746Z,10.76
2023-03-17T15:41:41.961Z,10.65
2023-03-17T15:44:16.303Z,10.58
2023-03-17T15:46:50.176Z,10.54
2023-03-17T15:49:26.778Z,10.48
2023-03-17T15:52:00.424Z,10.42
2023-03-17T15:54:34.290Z,10.33
2023-03-17T15:57:08.527Z,10.25
2023-03-17T15:59:42.549Z,10.17
2023-03-17T16:02:34.408Z,10.08
2023-03-17T16:05:19.652Z,9.99
2023-03-17T16:07:53.955Z,9.90
2023-03-17T16:10:29.701Z,9.84
2023-03-17T16:13:03.857Z,9.77
2023-03-17T16:15:42.521Z,9.71
2023-03-17T16:18:17.151Z,9.65
2023-03-17T16:20:54.241Z,9.58
2023-03-17T16:23:31.853Z,9.50
2023-03-17T16:26:16.517Z,9.43
2023-03-17T16:28:51.756Z,9.36
2023-03-17T16:31:29.562Z,9.28
2023-03-17T16:34:04.096Z,9.22
2023-03-17T16:36:38.367Z,9.15
2023-03-17T16:39:18.878Z,9.09
2023-03-17T16:41:53.821Z,9.03
2023-03-17T16:44:28.400Z,8.97
2023-03-17T16:47:02.490Z,8.90
2023-03-17T16:49:36.458Z,8.85
2023-03-17T16:52:11.590Z,8.81
2023-03-17T16:54:45.273Z,8.77
2023-03-17T16:57:20.207Z,8.73
2023-03-17T16:59:54.346Z,8.68
2023-03-17T17:02:30.298Z,8.64
2023-03-17T17:05:07.601Z,8.60
2023-03-17T17:07:42.160Z,8.57
2023-03-17T17:10:19.257Z,8.53
2023-03-17T17:12:53.972Z,8.49
2023-03-17T17:15:30.312Z,8.44
2023-03-17T17:18:09.260Z,8.40
2023-03-17T17:20:44.944Z,8.36
2023-03-17T17:23:25.255Z,8.32
2023-03-17T17:26:00.302Z,8.28
2023-03-17T17:28:36.074Z,8.25
2023-03-17T17:31:12.395Z,8.23
2023-03-17T17:33:48.642Z,8.19
2023-03-17T17:36:22.911Z,8.16
2023-03-17T17:39:00.261Z,8.13
2023-03-17T17:41:35.960Z,8.10
2023-03-17T17:44:13.306Z,8.07
2023-03-17T17:46:50.132Z,8.04
2023-03-17T17:49:32.473Z,8.00
2023-03-17T17:52:12.952Z,7.98
2023-03-17T17:54:57.951Z,7.92
2023-03-17T17:57:35.013Z,7.88
2023-03-17T18:00:19.671Z,7.86
2023-03-17T18:02:59.226Z,7.83
2023-03-17T18:05:35.099Z,7.81
2023-03-17T18:08:21.358Z,7.78
2023-03-17T18:10:58.433Z,7.74
2023-03-17T18:13:40.107Z,7.71
2023-03-17T18:16:19.756Z,7.68
2023-03-17T18:18:58.709Z,7.65
2023-03-17T18:21:37.523Z,7.63
2023-03-17T18:24:14.152Z,7.60
2023-03-17T18:26:52.520Z,7.56
2023-03-17T18:29:30.556Z,7.53
2023-03-17T18:32:09.179Z,7.51
2023-03-17T18:34:57.952Z,7.48
2023-03-17T18:37:44.865Z,7.45
2023-03-17T18:40:26.165Z,7.42
2023-03-17T18:43:02.670Z,7.39
2023-03-17T18:45:39.180Z,7.37
2023-03-17T18:48:19.307Z,7.35
2023-03-17T18:50:56.806Z,7.32
2023-03-17T18:53:37.784Z,7.30
2023-03-17T18:56:23.383Z,7.27
2023-03-17T18:59:05.014Z,7.24
2023-03-17T19:01:43.333Z,7.22
2023-03-17T19:04:21.075Z,7.20
2023-03-17T19:06:58.577Z,7.17
2023-03-17T19:09:35.833Z,7.15
2023-03-17T19:12:14.546Z,7.13
2023-03-17T19:14:55.876Z,7.10
2023-03-17T19:17:43.141Z,7.09
2023-03-17T19:20:23.070Z,7.07
2023-03-17T19:22:59.606Z,7.03
2023-03-17T19:25:37.968Z,7.01
2023-03-17T19:28:16.987Z,6.98
2023-03-17T19:30:57.034Z,6.96
2023-03-17T19:33:33.660Z,6.92
2023-03-17T19:36:15.941Z,6.88
2023-03-17T19:38:53.909Z,6.84
2023-03-17T19:41:35.823Z,6.82
2023-03-17T19:44:16.674Z,6.79
2023-03-17T19:46:55.398Z,6.77
2023-03-17T19:49:32.150Z,6.75
2023-03-17T19:52:10.574Z,6.73
2023-03-17T19:54:50.001Z,6.69
2023-03-17T19:57:24.906Z,6.66
2023-03-17T20:00:03.922Z,6.62
2023-03-17T20:02:46.997Z,6.59
2023-03-17T20:05:28.110Z,6.57
2023-03-17T20:08:09.890Z,6.55
2023-03-17T20:10:49.029Z,6.53
2023-03-17T20:13:25.906Z,6.50
2023-03-17T20:16:02.774Z,6.47
2023-03-17T20:18:43.925Z,6.45
2023-03-17T20:21:20.191Z,6.41
2023-03-17T20:23:57.827Z,6.39
2023-03-17T20:26:35.063Z,6.36
2023-03-17T20:29:11.667Z,6.34
2023-03-17T20:31:49.399Z,6.31
2023-03-17T20:34:26.811Z,6.28
2023-03-17T20:37:11.272Z,6.26
2023-03-17T20:39:48.236Z,6.23
2023-03-17T20:42:26.956Z,6.19
2023-03-17T20:45:05.132Z,6.18
2023-03-17T20:47:40.597Z,6.15
2023-03-17T20:50:19.115Z,6.12
2023-03-17T20:52:56.276Z,6.11
2023-03-17T20:55:33.823Z,6.09
2023-03-17T20:58:16.341Z,6.08
2023-03-17T21:00:55.287Z,6.08
2023-03-17T21:03:42.030Z,6.07
2023-03-17T21:06:26.161Z,6.06
2023-03-17T21:09:02.819Z,6.03
2023-03-17T21:11:40.999Z,6.02
2023-03-17T21:14:17.800Z,5.98
2023-03-17T21:16:53.076Z,6.00
2023-03-17T21:19:32.308Z,5.98
2023-03-17T21:22:09.731Z,5.95
2023-03-17T21:24:43.637Z,5.93
2023-03-17T21:27:18.741Z,5.89
2023-03-17T21:29:54.511Z,5.88
2023-03-17T21:32:33.473Z,5.86
2023-03-17T21:35:11.716Z,5.85
2023-03-17T21:37:45.858Z,5.83
2023-03-17T21:40:21.647Z,5.82
2023-03-17T21:42:56.574Z,5.82
2023-03-17T21:45:31.613Z,5.80
2023-03-17T21:48:05.603Z,5.78
2023-03-17T21:50:40.112Z,5.78
2023-03-17T21:53:17.041Z,5.78
2023-03-17T21:55:50.992Z,5.78
2023-03-17T21:58:24.789Z,5.76
2023-03-17T22:01:01.029Z,5.76
2023-03-17T22:03:35.147Z,5.74
2023-03-17T22:06:10.143Z,5.73
2023-03-17T22:08:44.674Z,5.72
2023-03-17T22:11:20.559Z,5.72
2023-03-17T22:13:54.121Z,5.71
2023-03-17T22:16:28.170Z,5.70
2023-03-17T22:19:02.278Z,5.72
2023-03-17T22:21:35.583Z,5.71
2023-03-17T22:24:09.827Z,5.71
2023-03-17T22:26:43.581Z,5.69
2023-03-17T22:29:17.316Z,5.70
2023-03-17T22:31:51.312Z,5.69
2023-03-17T22:34:24.999Z,5.69
2023-03-17T22:36:58.791Z,5.68
2023-03-17T22:39:32.648Z,5.68
2023-03-17T22:42:06.764Z,5.66
2023-03-17T22:44:40.710Z,5.66
2023-03-17T22:47:14.708Z,5.67
2023-03-17T22:49:48.402Z,5.66
2023-03-17T22:52:22.165Z,5.66
2023-03-17T22:54:56.266Z,5.65
2023-03-17T22:57:30.070Z,5.64
2023-03-17T23:00:04.324Z,5.62
2023-03-17T23:02:37.993Z,5.61
2023-03-17T23:05:13.695Z,5.61
2023-03-17T23:07:50.836Z,5.60
2023-03-17T23:10:25.590Z,5.58
2023-03-17T23:12:59.757Z,5.56
2023-03-17T23:15:34.671Z,5.54
2023-03-17T23:18:09.702Z,5.52
2023-03-17T23:20:43.956Z,5.51
2023-03-17T23:23:18.549Z,5.50
2023-03-17T23:25:52.325Z,5.48
2023-03-17T23:28:25.852Z,5.47
2023-03-17T23:30:59.936Z,5.46
2023-03-17T23:33:34.382Z,5.45
2023-03-17T23:36:09.502Z,5.44
2023-03-17T23:38:42.939Z,5.42
2023-03-17T23:41:17.790Z,5.39
2023-03-17T23:43:51.645Z,5.37
2023-03-17T23:46:25.071Z,5.36
2023-03-17T23:48:58.812Z,5.35
2023-03-17T23:51:32.512Z,5.33
2023-03-17T23:54:08.049Z,5.31
2023-03-17T23:56:41.966Z,5.32
2023-03-17T23:59:15.884Z,5.31
